sensor_id;sensor_type;location;lat;lon;timestamp;temperature;humidity
80426;DHT22;69766;51.476;5.704;2023-09-19T00:01:34;14.90;99.90
80426;DHT22;69766;51.476;5.704;2023-09-19T00:04:05;14.90;99.90
80426;DHT22;69766;51.476;5.704;2023-09-19T00:06:46;14.80;99.90
80426;DHT22;69766;51.476;5.704;2023-09-19T00:09:15;14.80;99.90
80426;DHT22;69766;51.476;5.704;2023-09-19T00:11:46;14.80;99.90
80426;DHT22;69766;51.476;5.704;2023-09-19T00:14:30;14.80;99.90
80426;DHT22;69766;51.476;5.704;2023-09-19T00:17:14;14.80;99.90
80426;DHT22;69766;51.476;5.704;2023-09-19T00:20:28;14.80;99.90
80426;DHT22;69766;51.476;5.704;2023-09-19T00:23:06;14.80;99.90
80426;DHT22;69766;51.476;5.704;2023-09-19T00:25:54;14.70;99.90
80426;DHT22;69766;51.476;5.704;2023-09-19T00:28:40;14.70;99.90
80426;DHT22;69766;51.476;5.704;2023-09-19T00:31:29;14.70;99.90
80426;DHT22;69766;51.476;5.704;2023-09-19T00:34:16;14.70;99.90
80426;DHT22;69766;51.476;5.704;2023-09-19T00:36:57;14.60;99.90
80426;DHT22;69766;51.476;5.704;2023-09-19T00:39:47;14.60;99.90
80426;DHT22;69766;51.476;5.704;2023-09-19T00:42:21;14.60;99.90
80426;DHT22;69766;51.476;5.704;2023-09-19T00:45:22;14.50;99.90
80426;DHT22;69766;51.476;5.704;2023-09-19T00:47:54;14.70;99.90
80426;DHT22;69766;51.476;5.704;2023-09-19T00:51:02;14.60;99.90
80426;DHT22;69766;51.476;5.704;2023-09-19T00:53:31;14.50;99.90
80426;DHT22;69766;51.476;5.704;2023-09-19T00:55:56;14.50;99.90
80426;DHT22;69766;51.476;5.704;2023-09-19T00:58:26;14.50;99.90
80426;DHT22;69766;51.476;5.704;2023-09-19T01:01:04;14.40;99.90
80426;DHT22;69766;51.476;5.704;2023-09-19T01:03:37;14.50;99.90
80426;DHT22;69766;51.476;5.704;2023-09-19T01:06:03;14.50;99.90
80426;DHT22;69766;51.476;5.704;2023-09-19T01:08:34;14.50;99.90
80426;DHT22;69766;51.476;5.704;2023-09-19T01:17:45;14.50;99.90
80426;DHT22;69766;51.476;5.704;2023-09-19T01:29:44;14.40;99.90
80426;DHT22;69766;51.476;5.704;2023-09-19T01:32:15;14.40;99.90
80426;DHT22;69766;51.476;5.704;2023-09-19T01:34:50;14.40;99.90
80426;DHT22;69766;51.476;5.704;2023-09-19T01:37:25;14.30;99.90
80426;DHT22;69766;51.476;5.704;2023-09-19T01:40:10;14.30;99.90
80426;DHT22;69766;51.476;5.704;2023-09-19T01:49:06;14.30;99.90
80426;DHT22;69766;51.476;5.704;2023-09-19T01:52:26;14.40;99.90
80426;DHT22;69766;51.476;5.704;2023-09-19T01:55:14;14.30;99.90
80426;DHT22;69766;51.476;5.704;2023-09-19T01:58:48;14.20;99.90
80426;DHT22;69766;51.476;5.704;2023-09-19T02:03:46;14.20;99.90
80426;DHT22;69766;51.476;5.704;2023-09-19T02:06:33;14.20;99.90
80426;DHT22;69766;51.476;5.704;2023-09-19T02:09:06;14.10;99.90
80426;DHT22;69766;51.476;5.704;2023-09-19T02:11:38;14.10;99.90
80426;DHT22;69766;51.476;5.704;2023-09-19T02:14:10;14.10;99.90
80426;DHT22;69766;51.476;5.704;2023-09-19T02:19:36;14.10;99.90
80426;DHT22;69766;51.476;5.704;2023-09-19T02:22:29;13.90;99.90
80426;DHT22;69766;51.476;5.704;2023-09-19T02:25:10;14.10;99.90
80426;DHT22;69766;51.476;5.704;2023-09-19T02:28:07;14.20;99.90
80426;DHT22;69766;51.476;5.704;2023-09-19T02:30:50;14.10;99.90
80426;DHT22;69766;51.476;5.704;2023-09-19T02:33:40;14.10;99.90
80426;DHT22;69766;51.476;5.704;2023-09-19T02:36:21;14.10;99.90
80426;DHT22;69766;51.476;5.704;2023-09-19T02:38:59;14.00;99.90
80426;DHT22;69766;51.476;5.704;2023-09-19T02:41:30;14.00;99.90
80426;DHT22;69766;51.476;5.704;2023-09-19T02:44:03;13.90;99.90
80426;DHT22;69766;51.476;5.704;2023-09-19T02:46:51;13.80;99.90
80426;DHT22;69766;51.476;5.704;2023-09-19T02:49:20;13.90;99.90
80426;DHT22;69766;51.476;5.704;2023-09-19T02:51:49;13.80;99.90
80426;DHT22;69766;51.476;5.704;2023-09-19T02:54:27;13.80;99.90
80426;DHT22;69766;51.476;5.704;2023-09-19T02:57:08;13.80;99.90
80426;DHT22;69766;51.476;5.704;2023-09-19T02:59:41;13.80;99.90
80426;DHT22;69766;51.476;5.704;2023-09-19T03:02:23;13.90;99.90
80426;DHT22;69766;51.476;5.704;2023-09-19T03:05:00;13.80;99.90
80426;DHT22;69766;51.476;5.704;2023-09-19T03:07:59;13.80;99.90
80426;DHT22;69766;51.476;5.704;2023-09-19T03:10:51;13.70;99.90
80426;DHT22;69766;51.476;5.704;2023-09-19T03:13:30;13.70;99.90
80426;DHT22;69766;51.476;5.704;2023-09-19T03:16:25;13.80;99.90
80426;DHT22;69766;51.476;5.704;2023-09-19T03:19:19;13.70;99.90
80426;DHT22;69766;51.476;5.704;2023-09-19T03:22:03;13.70;99.90
80426;DHT22;69766;51.476;5.704;2023-09-19T03:24:41;13.60;99.90
80426;DHT22;69766;51.476;5.704;2023-09-19T03:27:12;13.70;99.90
80426;DHT22;69766;51.476;5.704;2023-09-19T03:30:00;13.60;99.90
80426;DHT22;69766;51.476;5.704;2023-09-19T03:32:36;13.60;99.90
80426;DHT22;69766;51.476;5.704;2023-09-19T03:35:06;13.40;99.90
80426;DHT22;69766;51.476;5.704;2023-09-19T03:37:37;13.40;99.90
80426;DHT22;69766;51.476;5.704;2023-09-19T03:40:10;13.40;99.90
80426;DHT22;69766;51.476;5.704;2023-09-19T03:42:47;13.40;99.90
80426;DHT22;69766;51.476;5.704;2023-09-19T03:45:27;13.40;99.90
80426;DHT22;69766;51.476;5.704;2023-09-19T03:47:58;13.40;99.90
80426;DHT22;69766;51.476;5.704;2023-09-19T03:50:48;13.50;99.90
80426;DHT22;69766;51.476;5.704;2023-09-19T03:53:24;13.30;99.90
80426;DHT22;69766;51.476;5.704;2023-09-19T03:56:05;13.40;99.90
80426;DHT22;69766;51.476;5.704;2023-09-19T03:58:36;13.40;99.90
80426;DHT22;69766;51.476;5.704;2023-09-19T04:01:15;13.30;99.90
80426;DHT22;69766;51.476;5.704;2023-09-19T04:03:49;13.50;99.90
80426;DHT22;69766;51.476;5.704;2023-09-19T04:06:24;13.50;99.90
80426;DHT22;69766;51.476;5.704;2023-09-19T04:09:00;13.50;99.90
80426;DHT22;69766;51.476;5.704;2023-09-19T04:11:44;13.40;99.90
80426;DHT22;69766;51.476;5.704;2023-09-19T04:14:24;13.30;99.90
80426;DHT22;69766;51.476;5.704;2023-09-19T04:17:20;13.30;99.90
80426;DHT22;69766;51.476;5.704;2023-09-19T04:19:59;13.30;99.90
80426;DHT22;69766;51.476;5.704;2023-09-19T04:22:35;13.30;99.90
80426;DHT22;69766;51.476;5.704;2023-09-19T04:25:10;13.30;99.90
80426;DHT22;69766;51.476;5.704;2023-09-19T04:27:38;13.40;99.90
80426;DHT22;69766;51.476;5.704;2023-09-19T04:30:06;13.40;99.90
80426;DHT22;69766;51.476;5.704;2023-09-19T04:32:36;13.40;99.90
80426;DHT22;69766;51.476;5.704;2023-09-19T04:35:08;13.30;99.90
80426;DHT22;69766;51.476;5.704;2023-09-19T04:37:58;13.40;99.90
80426;DHT22;69766;51.476;5.704;2023-09-19T04:40:56;13.30;99.90
80426;DHT22;69766;51.476;5.704;2023-09-19T04:43:30;13.30;99.90
80426;DHT22;69766;51.476;5.704;2023-09-19T04:45:59;13.40;99.90
80426;DHT22;69766;51.476;5.704;2023-09-19T04:48:30;13.40;99.90
80426;DHT22;69766;51.476;5.704;2023-09-19T04:51:14;13.40;99.90
80426;DHT22;69766;51.476;5.704;2023-09-19T04:53:58;13.40;99.90
80426;DHT22;69766;51.476;5.704;2023-09-19T04:59:20;13.40;99.90
80426;DHT22;69766;51.476;5.704;2023-09-19T05:01:46;13.40;99.90
80426;DHT22;69766;51.476;5.704;2023-09-19T05:04:22;13.50;99.90
80426;DHT22;69766;51.476;5.704;2023-09-19T05:06:56;13.50;99.90
80426;DHT22;69766;51.476;5.704;2023-09-19T05:09:28;13.70;99.90
80426;DHT22;69766;51.476;5.704;2023-09-19T05:11:57;13.70;99.90
80426;DHT22;69766;51.476;5.704;2023-09-19T05:14:35;13.90;99.90
80426;DHT22;69766;51.476;5.704;2023-09-19T05:17:06;13.80;99.90
80426;DHT22;69766;51.476;5.704;2023-09-19T05:19:37;13.90;99.90
80426;DHT22;69766;51.476;5.704;2023-09-19T05:22:09;13.90;99.90
80426;DHT22;69766;51.476;5.704;2023-09-19T05:24:41;13.90;99.90
80426;DHT22;69766;51.476;5.704;2023-09-19T05:27:16;14.00;99.90
80426;DHT22;69766;51.476;5.704;2023-09-19T05:30:09;13.90;99.90
80426;DHT22;69766;51.476;5.704;2023-09-19T05:32:51;14.00;99.90
80426;DHT22;69766;51.476;5.704;2023-09-19T05:35:26;14.00;99.90
80426;DHT22;69766;51.476;5.704;2023-09-19T05:37:55;14.00;99.90
80426;DHT22;69766;51.476;5.704;2023-09-19T05:40:26;13.90;99.90
80426;DHT22;69766;51.476;5.704;2023-09-19T05:42:58;14.00;99.90
80426;DHT22;69766;51.476;5.704;2023-09-19T05:45:41;13.90;99.90
80426;DHT22;69766;51.476;5.704;2023-09-19T05:48:21;13.90;99.90
80426;DHT22;69766;51.476;5.704;2023-09-19T05:53:41;13.90;99.90
80426;DHT22;69766;51.476;5.704;2023-09-19T05:56:13;14.00;99.90
80426;DHT22;69766;51.476;5.704;2023-09-19T05:58:42;14.00;99.90
80426;DHT22;69766;51.476;5.704;2023-09-19T06:01:30;14.00;99.90
80426;DHT22;69766;51.476;5.704;2023-09-19T06:03:58;14.00;99.90
80426;DHT22;69766;51.476;5.704;2023-09-19T06:06:45;13.90;99.90
80426;DHT22;69766;51.476;5.704;2023-09-19T06:09:24;13.90;99.90
80426;DHT22;69766;51.476;5.704;2023-09-19T06:12:00;14.00;99.90
80426;DHT22;69766;51.476;5.704;2023-09-19T06:14:54;13.90;99.90
80426;DHT22;69766;51.476;5.704;2023-09-19T06:17:36;14.00;99.90
80426;DHT22;69766;51.476;5.704;2023-09-19T06:20:18;14.10;99.90
80426;DHT22;69766;51.476;5.704;2023-09-19T06:23:08;14.10;99.90
80426;DHT22;69766;51.476;5.704;2023-09-19T06:25:38;14.20;99.90
80426;DHT22;69766;51.476;5.704;2023-09-19T06:28:11;14.20;99.90
80426;DHT22;69766;51.476;5.704;2023-09-19T06:30:48;14.20;99.90
80426;DHT22;69766;51.476;5.704;2023-09-19T06:33:18;14.30;99.90
80426;DHT22;69766;51.476;5.704;2023-09-19T06:38:54;14.40;99.90
80426;DHT22;69766;51.476;5.704;2023-09-19T06:41:28;14.40;99.90
80426;DHT22;69766;51.476;5.704;2023-09-19T06:43:55;14.40;99.90
80426;DHT22;69766;51.476;5.704;2023-09-19T06:46:33;14.40;99.90
80426;DHT22;69766;51.476;5.704;2023-09-19T06:49:07;14.40;99.90
80426;DHT22;69766;51.476;5.704;2023-09-19T06:51:47;14.50;99.90
80426;DHT22;69766;51.476;5.704;2023-09-19T06:54:28;14.50;99.90
80426;DHT22;69766;51.476;5.704;2023-09-19T06:56:59;14.50;99.90
80426;DHT22;69766;51.476;5.704;2023-09-19T06:59:28;14.50;99.90
80426;DHT22;69766;51.476;5.704;2023-09-19T07:02:06;14.50;99.90
80426;DHT22;69766;51.476;5.704;2023-09-19T07:07:34;14.60;99.90
80426;DHT22;69766;51.476;5.704;2023-09-19T07:10:12;14.60;99.90
80426;DHT22;69766;51.476;5.704;2023-09-19T07:12:54;14.60;99.90
80426;DHT22;69766;51.476;5.704;2023-09-19T07:15:29;14.80;99.90
80426;DHT22;69766;51.476;5.704;2023-09-19T07:18:18;14.80;99.90
80426;DHT22;69766;51.476;5.704;2023-09-19T07:20:56;14.90;99.90
80426;DHT22;69766;51.476;5.704;2023-09-19T07:23:45;14.90;99.90
80426;DHT22;69766;51.476;5.704;2023-09-19T07:26:16;15.00;99.90
80426;DHT22;69766;51.476;5.704;2023-09-19T07:29:00;15.00;99.90
80426;DHT22;69766;51.476;5.704;2023-09-19T07:31:34;15.10;99.90
80426;DHT22;69766;51.476;5.704;2023-09-19T07:34:17;15.10;99.90
80426;DHT22;69766;51.476;5.704;2023-09-19T07:36:53;15.20;99.90
80426;DHT22;69766;51.476;5.704;2023-09-19T07:39:30;15.30;99.90
80426;DHT22;69766;51.476;5.704;2023-09-19T07:42:04;15.30;99.90
80426;DHT22;69766;51.476;5.704;2023-09-19T07:44:51;15.40;99.90
80426;DHT22;69766;51.476;5.704;2023-09-19T07:47:43;15.40;99.90
80426;DHT22;69766;51.476;5.704;2023-09-19T07:50:20;15.50;99.90
80426;DHT22;69766;51.476;5.704;2023-09-19T07:53:13;15.50;99.90
80426;DHT22;69766;51.476;5.704;2023-09-19T07:55:46;15.60;99.90
80426;DHT22;69766;51.476;5.704;2023-09-19T07:58:43;15.50;99.90
80426;DHT22;69766;51.476;5.704;2023-09-19T08:01:15;15.50;99.90
80426;DHT22;69766;51.476;5.704;2023-09-19T08:03:47;15.70;99.90
80426;DHT22;69766;51.476;5.704;2023-09-19T08:06:43;15.70;99.90
80426;DHT22;69766;51.476;5.704;2023-09-19T08:09:47;15.70;99.90
80426;DHT22;69766;51.476;5.704;2023-09-19T08:12:30;15.90;99.90
80426;DHT22;69766;51.476;5.704;2023-09-19T08:15:07;15.90;99.90
80426;DHT22;69766;51.476;5.704;2023-09-19T08:17:46;16.00;99.90
80426;DHT22;69766;51.476;5.704;2023-09-19T08:20:23;16.20;99.90
80426;DHT22;69766;51.476;5.704;2023-09-19T08:23:34;16.30;99.90
80426;DHT22;69766;51.476;5.704;2023-09-19T08:26:04;16.40;99.90
80426;DHT22;69766;51.476;5.704;2023-09-19T08:29:11;16.60;99.90
80426;DHT22;69766;51.476;5.704;2023-09-19T08:31:46;16.60;99.90
80426;DHT22;69766;51.476;5.704;2023-09-19T08:34:18;16.80;99.90
80426;DHT22;69766;51.476;5.704;2023-09-19T08:36:56;16.80;99.90
80426;DHT22;69766;51.476;5.704;2023-09-19T08:39:22;16.70;99.90
80426;DHT22;69766;51.476;5.704;2023-09-19T08:42:02;16.60;99.90
80426;DHT22;69766;51.476;5.704;2023-09-19T08:44:44;16.50;99.90
80426;DHT22;69766;51.476;5.704;2023-09-19T08:47:26;16.60;99.90
80426;DHT22;69766;51.476;5.704;2023-09-19T08:53:04;16.60;99.90
80426;DHT22;69766;51.476;5.704;2023-09-19T08:55:58;16.70;99.90
80426;DHT22;69766;51.476;5.704;2023-09-19T08:58:56;16.70;99.90
80426;DHT22;69766;51.476;5.704;2023-09-19T09:01:52;16.90;99.90
80426;DHT22;69766;51.476;5.704;2023-09-19T09:04:24;16.90;99.90
80426;DHT22;69766;51.476;5.704;2023-09-19T09:07:05;17.00;99.90
80426;DHT22;69766;51.476;5.704;2023-09-19T09:09:36;17.00;99.90
80426;DHT22;69766;51.476;5.704;2023-09-19T09:12:49;16.80;99.90
80426;DHT22;69766;51.476;5.704;2023-09-19T09:15:34;17.10;99.90
80426;DHT22;69766;51.476;5.704;2023-09-19T09:18:15;17.10;99.90
80426;DHT22;69766;51.476;5.704;2023-09-19T09:20:51;17.30;99.90
80426;DHT22;69766;51.476;5.704;2023-09-19T09:23:26;17.30;99.90
80426;DHT22;69766;51.476;5.704;2023-09-19T09:26:06;17.20;99.90
80426;DHT22;69766;51.476;5.704;2023-09-19T09:28:46;17.30;99.90
80426;DHT22;69766;51.476;5.704;2023-09-19T09:31:31;17.30;99.90
80426;DHT22;69766;51.476;5.704;2023-09-19T09:34:42;17.70;99.90
80426;DHT22;69766;51.476;5.704;2023-09-19T09:37:15;18.20;99.90
80426;DHT22;69766;51.476;5.704;2023-09-19T09:40:02;18.30;99.90
80426;DHT22;69766;51.476;5.704;2023-09-19T09:42:52;19.30;99.90
80426;DHT22;69766;51.476;5.704;2023-09-19T09:45:29;19.70;99.90
80426;DHT22;69766;51.476;5.704;2023-09-19T09:48:01;19.90;99.90
80426;DHT22;69766;51.476;5.704;2023-09-19T09:50:47;20.20;99.90
80426;DHT22;69766;51.476;5.704;2023-09-19T09:53:32;20.50;99.90
80426;DHT22;69766;51.476;5.704;2023-09-19T09:56:10;21.10;99.90
80426;DHT22;69766;51.476;5.704;2023-09-19T09:58:52;21.00;99.90
80426;DHT22;69766;51.476;5.704;2023-09-19T10:01:27;21.40;99.90
80426;DHT22;69766;51.476;5.704;2023-09-19T10:04:02;21.50;99.90
80426;DHT22;69766;51.476;5.704;2023-09-19T10:06:41;21.30;99.90
80426;DHT22;69766;51.476;5.704;2023-09-19T10:09:15;21.30;99.90
80426;DHT22;69766;51.476;5.704;2023-09-19T10:12:11;22.40;99.90
80426;DHT22;69766;51.476;5.704;2023-09-19T10:14:38;21.80;99.90
80426;DHT22;69766;51.476;5.704;2023-09-19T10:17:17;21.10;99.90
80426;DHT22;69766;51.476;5.704;2023-09-19T10:19:56;20.40;99.90
80426;DHT22;69766;51.476;5.704;2023-09-19T10:23:04;20.30;99.90
80426;DHT22;69766;51.476;5.704;2023-09-19T10:26:07;20.00;99.90
80426;DHT22;69766;51.476;5.704;2023-09-19T10:28:57;20.20;99.90
80426;DHT22;69766;51.476;5.704;2023-09-19T10:31:33;20.10;99.90
80426;DHT22;69766;51.476;5.704;2023-09-19T10:37:20;19.60;99.90
80426;DHT22;69766;51.476;5.704;2023-09-19T10:39:56;19.30;99.90
80426;DHT22;69766;51.476;5.704;2023-09-19T10:42:26;19.40;99.90
80426;DHT22;69766;51.476;5.704;2023-09-19T10:44:55;19.70;99.90
80426;DHT22;69766;51.476;5.704;2023-09-19T10:47:26;19.90;99.90
80426;DHT22;69766;51.476;5.704;2023-09-19T10:50:05;19.80;99.90
80426;DHT22;69766;51.476;5.704;2023-09-19T10:52:43;19.60;99.90
80426;DHT22;69766;51.476;5.704;2023-09-19T10:55:21;19.60;99.90
80426;DHT22;69766;51.476;5.704;2023-09-19T10:57:53;19.90;99.90
80426;DHT22;69766;51.476;5.704;2023-09-19T11:00:26;20.00;99.90
80426;DHT22;69766;51.476;5.704;2023-09-19T11:03:37;19.80;99.90
80426;DHT22;69766;51.476;5.704;2023-09-19T11:11:50;19.70;99.90
80426;DHT22;69766;51.476;5.704;2023-09-19T11:14:30;19.90;99.90
80426;DHT22;69766;51.476;5.704;2023-09-19T11:20:28;19.80;99.90
80426;DHT22;69766;51.476;5.704;2023-09-19T11:23:17;19.60;99.90
80426;DHT22;69766;51.476;5.704;2023-09-19T11:25:48;19.70;99.90
80426;DHT22;69766;51.476;5.704;2023-09-19T11:28:33;19.80;99.90
80426;DHT22;69766;51.476;5.704;2023-09-19T11:31:41;19.90;99.90
80426;DHT22;69766;51.476;5.704;2023-09-19T11:34:46;20.00;99.90
80426;DHT22;69766;51.476;5.704;2023-09-19T11:40:09;20.30;99.90
80426;DHT22;69766;51.476;5.704;2023-09-19T11:42:48;20.60;99.90
80426;DHT22;69766;51.476;5.704;2023-09-19T11:48:14;21.10;99.90
80426;DHT22;69766;51.476;5.704;2023-09-19T11:50:46;21.60;99.90
80426;DHT22;69766;51.476;5.704;2023-09-19T11:53:21;21.30;99.90
80426;DHT22;69766;51.476;5.704;2023-09-19T11:55:52;21.80;99.90
80426;DHT22;69766;51.476;5.704;2023-09-19T11:58:18;22.10;99.90
80426;DHT22;69766;51.476;5.704;2023-09-19T12:00:54;22.30;99.90
80426;DHT22;69766;51.476;5.704;2023-09-19T12:03:29;22.80;99.90
80426;DHT22;69766;51.476;5.704;2023-09-19T12:05:57;23.00;99.90
80426;DHT22;69766;51.476;5.704;2023-09-19T12:08:29;23.00;99.90
80426;DHT22;69766;51.476;5.704;2023-09-19T12:10:55;22.40;99.90
80426;DHT22;69766;51.476;5.704;2023-09-19T12:13:24;22.30;99.90
80426;DHT22;69766;51.476;5.704;2023-09-19T12:16:00;22.10;99.90
80426;DHT22;69766;51.476;5.704;2023-09-19T12:18:32;21.60;99.90
80426;DHT22;69766;51.476;5.704;2023-09-19T12:20:59;21.70;99.90
80426;DHT22;69766;51.476;5.704;2023-09-19T12:23:30;21.80;99.90
80426;DHT22;69766;51.476;5.704;2023-09-19T12:25:56;21.60;99.90
80426;DHT22;69766;51.476;5.704;2023-09-19T12:28:30;21.40;99.90
80426;DHT22;69766;51.476;5.704;2023-09-19T12:31:06;22.00;99.90
80426;DHT22;69766;51.476;5.704;2023-09-19T12:33:36;22.50;99.90
80426;DHT22;69766;51.476;5.704;2023-09-19T12:36:35;22.60;99.90
80426;DHT22;69766;51.476;5.704;2023-09-19T12:39:07;22.40;99.90
80426;DHT22;69766;51.476;5.704;2023-09-19T12:41:42;22.40;99.90
80426;DHT22;69766;51.476;5.704;2023-09-19T12:44:15;22.60;99.90
80426;DHT22;69766;51.476;5.704;2023-09-19T12:46:46;22.60;99.90
80426;DHT22;69766;51.476;5.704;2023-09-19T12:49:19;22.10;99.90
80426;DHT22;69766;51.476;5.704;2023-09-19T12:51:54;21.90;99.90
80426;DHT22;69766;51.476;5.704;2023-09-19T12:54:45;21.90;99.90
80426;DHT22;69766;51.476;5.704;2023-09-19T12:57:46;21.90;99.90
80426;DHT22;69766;51.476;5.704;2023-09-19T13:00:44;21.40;99.90
80426;DHT22;69766;51.476;5.704;2023-09-19T13:06:09;20.50;99.90
80426;DHT22;69766;51.476;5.704;2023-09-19T13:08:41;20.70;99.90
80426;DHT22;69766;51.476;5.704;2023-09-19T13:11:11;20.70;99.90
80426;DHT22;69766;51.476;5.704;2023-09-19T13:13:51;20.80;99.90
80426;DHT22;69766;51.476;5.704;2023-09-19T13:16:23;20.70;99.90
80426;DHT22;69766;51.476;5.704;2023-09-19T13:19:08;22.20;99.90
80426;DHT22;69766;51.476;5.704;2023-09-19T13:21:35;22.10;99.90
80426;DHT22;69766;51.476;5.704;2023-09-19T13:24:26;21.50;99.90
80426;DHT22;69766;51.476;5.704;2023-09-19T13:27:08;21.30;99.90
80426;DHT22;69766;51.476;5.704;2023-09-19T13:29:42;21.30;99.90
80426;DHT22;69766;51.476;5.704;2023-09-19T13:32:11;21.20;99.90
80426;DHT22;69766;51.476;5.704;2023-09-19T13:34:42;21.00;99.90
80426;DHT22;69766;51.476;5.704;2023-09-19T13:37:38;21.20;99.90
80426;DHT22;69766;51.476;5.704;2023-09-19T13:40:20;20.70;99.90
80426;DHT22;69766;51.476;5.704;2023-09-19T13:46:46;20.20;99.90
80426;DHT22;69766;51.476;5.704;2023-09-19T13:49:44;20.30;99.90
80426;DHT22;69766;51.476;5.704;2023-09-19T13:55:48;20.30;99.90
80426;DHT22;69766;51.476;5.704;2023-09-19T13:58:25;20.30;99.90
80426;DHT22;69766;51.476;5.704;2023-09-19T14:00:57;20.10;99.90
80426;DHT22;69766;51.476;5.704;2023-09-19T14:07:03;20.10;99.90
80426;DHT22;69766;51.476;5.704;2023-09-19T14:13:11;19.90;99.90
80426;DHT22;69766;51.476;5.704;2023-09-19T14:19:43;19.80;99.90
80426;DHT22;69766;51.476;5.704;2023-09-19T14:22:19;19.90;99.90
80426;DHT22;69766;51.476;5.704;2023-09-19T14:25:10;19.80;99.90
80426;DHT22;69766;51.476;5.704;2023-09-19T14:27:54;19.80;99.90
80426;DHT22;69766;51.476;5.704;2023-09-19T14:30:23;20.00;99.90
80426;DHT22;69766;51.476;5.704;2023-09-19T14:42:54;20.80;99.90
80426;DHT22;69766;51.476;5.704;2023-09-19T14:45:27;21.00;99.90
80426;DHT22;69766;51.476;5.704;2023-09-19T14:48:04;21.50;99.90
80426;DHT22;69766;51.476;5.704;2023-09-19T14:50:33;22.00;99.90
80426;DHT22;69766;51.476;5.704;2023-09-19T14:53:13;22.40;99.90
80426;DHT22;69766;51.476;5.704;2023-09-19T14:55:45;22.60;99.90
80426;DHT22;69766;51.476;5.704;2023-09-19T14:58:21;21.90;99.90
80426;DHT22;69766;51.476;5.704;2023-09-19T15:00:52;21.40;99.90
80426;DHT22;69766;51.476;5.704;2023-09-19T15:03:23;20.90;99.90
80426;DHT22;69766;51.476;5.704;2023-09-19T15:05:49;20.70;99.90
80426;DHT22;69766;51.476;5.704;2023-09-19T15:08:28;20.50;99.90
80426;DHT22;69766;51.476;5.704;2023-09-19T15:11:23;20.30;99.90
80426;DHT22;69766;51.476;5.704;2023-09-19T15:13:53;20.30;99.90
80426;DHT22;69766;51.476;5.704;2023-09-19T15:16:22;20.40;99.90
80426;DHT22;69766;51.476;5.704;2023-09-19T15:18:56;20.30;99.90
80426;DHT22;69766;51.476;5.704;2023-09-19T15:21:27;20.10;99.90
80426;DHT22;69766;51.476;5.704;2023-09-19T15:24:08;20.00;99.90
80426;DHT22;69766;51.476;5.704;2023-09-19T15:26:40;20.00;99.90
80426;DHT22;69766;51.476;5.704;2023-09-19T15:29:14;20.00;99.90
80426;DHT22;69766;51.476;5.704;2023-09-19T15:31:47;20.10;99.90
80426;DHT22;69766;51.476;5.704;2023-09-19T15:34:40;20.20;99.90
80426;DHT22;69766;51.476;5.704;2023-09-19T15:40:09;20.70;99.90
80426;DHT22;69766;51.476;5.704;2023-09-19T15:42:53;20.90;99.90
80426;DHT22;69766;51.476;5.704;2023-09-19T15:45:40;20.90;99.90
80426;DHT22;69766;51.476;5.704;2023-09-19T15:48:11;20.60;99.90
80426;DHT22;69766;51.476;5.704;2023-09-19T15:51:02;20.30;99.90
80426;DHT22;69766;51.476;5.704;2023-09-19T15:56:46;20.00;99.90
80426;DHT22;69766;51.476;5.704;2023-09-19T15:59:19;19.80;99.90
80426;DHT22;69766;51.476;5.704;2023-09-19T16:02:13;19.80;99.90
80426;DHT22;69766;51.476;5.704;2023-09-19T16:04:45;19.60;99.90
80426;DHT22;69766;51.476;5.704;2023-09-19T16:07:11;19.50;99.90
80426;DHT22;69766;51.476;5.704;2023-09-19T16:09:53;19.50;99.90
80426;DHT22;69766;51.476;5.704;2023-09-19T16:15:20;19.30;99.90
80426;DHT22;69766;51.476;5.704;2023-09-19T16:17:46;19.30;99.90
80426;DHT22;69766;51.476;5.704;2023-09-19T16:23:08;19.30;99.90
80426;DHT22;69766;51.476;5.704;2023-09-19T16:25:37;19.20;99.90
80426;DHT22;69766;51.476;5.704;2023-09-19T16:28:06;19.20;99.90
80426;DHT22;69766;51.476;5.704;2023-09-19T16:30:32;19.10;99.90
80426;DHT22;69766;51.476;5.704;2023-09-19T16:33:04;19.10;99.90
80426;DHT22;69766;51.476;5.704;2023-09-19T16:35:37;19.10;99.90
80426;DHT22;69766;51.476;5.704;2023-09-19T16:38:19;19.10;99.90
80426;DHT22;69766;51.476;5.704;2023-09-19T16:41:10;19.10;99.90
80426;DHT22;69766;51.476;5.704;2023-09-19T16:43:54;19.00;99.90
80426;DHT22;69766;51.476;5.704;2023-09-19T16:46:35;19.00;99.90
80426;DHT22;69766;51.476;5.704;2023-09-19T16:49:11;18.90;99.90
80426;DHT22;69766;51.476;5.704;2023-09-19T16:51:55;18.90;99.90
80426;DHT22;69766;51.476;5.704;2023-09-19T16:54:35;18.90;99.90
80426;DHT22;69766;51.476;5.704;2023-09-19T16:57:17;18.90;99.90
80426;DHT22;69766;51.476;5.704;2023-09-19T17:03:00;18.90;99.90
80426;DHT22;69766;51.476;5.704;2023-09-19T17:05:38;18.90;99.90
80426;DHT22;69766;51.476;5.704;2023-09-19T17:08:13;18.80;99.90
80426;DHT22;69766;51.476;5.704;2023-09-19T17:10:43;18.80;99.90
80426;DHT22;69766;51.476;5.704;2023-09-19T17:13:23;18.80;99.90
80426;DHT22;69766;51.476;5.704;2023-09-19T17:16:11;18.80;99.90
80426;DHT22;69766;51.476;5.704;2023-09-19T17:18:49;18.80;99.90
80426;DHT22;69766;51.476;5.704;2023-09-19T17:21:31;18.80;99.90
80426;DHT22;69766;51.476;5.704;2023-09-19T17:24:00;18.70;99.90
80426;DHT22;69766;51.476;5.704;2023-09-19T17:26:35;18.70;99.90
80426;DHT22;69766;51.476;5.704;2023-09-19T17:29:03;18.70;99.90
80426;DHT22;69766;51.476;5.704;2023-09-19T17:31:40;18.70;99.90
80426;DHT22;69766;51.476;5.704;2023-09-19T17:34:12;18.70;99.90
80426;DHT22;69766;51.476;5.704;2023-09-19T17:36:47;18.70;99.90
80426;DHT22;69766;51.476;5.704;2023-09-19T17:39:25;18.70;99.90
80426;DHT22;69766;51.476;5.704;2023-09-19T17:41:58;18.60;99.90
80426;DHT22;69766;51.476;5.704;2023-09-19T17:44:30;18.60;99.90
80426;DHT22;69766;51.476;5.704;2023-09-19T17:47:11;18.60;99.90
80426;DHT22;69766;51.476;5.704;2023-09-19T17:49:42;18.50;99.90
80426;DHT22;69766;51.476;5.704;2023-09-19T17:52:17;18.50;99.90
80426;DHT22;69766;51.476;5.704;2023-09-19T17:54:45;18.50;99.90
80426;DHT22;69766;51.476;5.704;2023-09-19T17:57:21;18.50;99.90
80426;DHT22;69766;51.476;5.704;2023-09-19T17:59:53;18.60;99.90
80426;DHT22;69766;51.476;5.704;2023-09-19T18:02:38;18.50;99.90
80426;DHT22;69766;51.476;5.704;2023-09-19T18:05:08;18.40;99.90
80426;DHT22;69766;51.476;5.704;2023-09-19T18:07:42;18.40;99.90
80426;DHT22;69766;51.476;5.704;2023-09-19T18:10:15;18.50;99.90
80426;DHT22;69766;51.476;5.704;2023-09-19T18:12:45;18.40;99.90
80426;DHT22;69766;51.476;5.704;2023-09-19T18:15:23;18.30;99.90
80426;DHT22;69766;51.476;5.704;2023-09-19T18:18:01;18.40;99.90
80426;DHT22;69766;51.476;5.704;2023-09-19T18:20:36;18.30;99.90
80426;DHT22;69766;51.476;5.704;2023-09-19T18:23:14;18.40;99.90
80426;DHT22;69766;51.476;5.704;2023-09-19T18:25:55;18.30;99.90
80426;DHT22;69766;51.476;5.704;2023-09-19T18:28:42;18.30;99.90